Time;durP1;ratioP1;P1;durP2;ratioP2;P2;SDS_P1;SDS_P2;PMS_P1;PMS_P2;Temp;Humidity;BMP_temperature;BMP_pressure;BME280_temperature;BME280_humidity;BME280_pressure;Samples;Min_cycle;Max_cycle;Signal;HPM_P1;HPM_P2
2022/10/06 00:01:15;;;;;;;5.53;3.15;;;;;;;;;;5036983;28;20087;-23
2022/10/06 00:03:42;;;;;;;3.55;2.38;;;;;;;;;;5035587;28;20053;-22
2022/10/06 00:06:09;;;;;;;9.45;2.80;;;;;;;;;;5037152;28;20033;-23
2022/10/06 00:08:37;;;;;;;5.00;2.67;;;;;;;;;;5036849;28;20021;-24
2022/10/06 00:11:03;;;;;;;9.85;3.33;;;;;;;;;;5036443;28;20402;-25
2022/10/06 00:13:30;;;;;;;8.95;3.40;;;;;;;;;;5036445;28;20029;-25
2022/10/06 00:15:56;;;;;;;5.35;2.75;;;;;;;;;;5036728;28;20446;-25
2022/10/06 00:18:22;;;;;;;5.93;3.03;;;;;;;;;;5036316;28;20022;-29
2022/10/06 00:20:56;;;;;;;8.95;2.00;;;;;;;;;;5036334;28;20447;-22
2022/10/06 00:23:22;;;;;;;8.43;2.22;;;;;;;;;;5036228;28;20034;-26
2022/10/06 00:25:48;;;;;;;6.57;2.42;;;;;;;;;;5036293;28;20033;-23
2022/10/06 00:28:15;;;;;;;16.40;2.72;;;;;;;;;;5036726;28;20029;-23
2022/10/06 00:30:41;;;;;;;6.43;2.50;;;;;;;;;;5036207;28;20024;-22
2022/10/06 00:33:11;;;;;;;6.50;2.70;;;;;;;;;;5036043;28;20116;-22
2022/10/06 00:35:38;;;;;;;5.07;2.88;;;;;;;;;;5036386;28;20021;-22
2022/10/06 00:38:04;;;;;;;7.78;2.80;;;;;;;;;;5035876;28;20033;-23
2022/10/06 00:40:30;;;;;;;6.78;2.25;;;;;;;;;;5035970;28;20064;-24
2022/10/06 00:42:58;;;;;;;7.57;3.15;;;;;;;;;;5034916;28;20071;-22
2022/10/06 00:45:34;;;;;;;8.43;2.30;;;;;;;;;;5035835;28;20021;-23
2022/10/06 00:48:03;;;;;;;11.80;2.97;;;;;;;;;;5036398;28;20474;-23
2022/10/06 00:50:30;;;;;;;9.55;2.90;;;;;;;;;;5036028;28;20083;-26
2022/10/06 00:52:56;;;;;;;6.05;2.90;;;;;;;;;;5035642;28;20029;-22
2022/10/06 00:55:22;;;;;;;4.93;2.58;;;;;;;;;;5035971;28;20029;-22
2022/10/06 00:57:49;;;;;;;5.75;2.42;;;;;;;;;;5034813;28;20037;-23
2022/10/06 01:00:16;;;;;;;8.00;2.47;;;;;;;;;;5035535;28;20036;-23
2022/10/06 01:02:44;;;;;;;4.30;2.38;;;;;;;;;;5035315;28;20040;-24
2022/10/06 01:05:14;;;;;;;6.93;2.95;;;;;;;;;;5035495;28;20060;-23
2022/10/06 01:07:40;;;;;;;5.50;2.20;;;;;;;;;;5035807;28;20060;-26
2022/10/06 01:10:07;;;;;;;5.63;2.47;;;;;;;;;;5035699;28;20482;-29
2022/10/06 01:12:34;;;;;;;7.25;2.00;;;;;;;;;;5035348;28;20099;-22
2022/10/06 01:15:01;;;;;;;4.50;2.40;;;;;;;;;;5035600;28;20136;-22
2022/10/06 01:17:32;;;;;;;7.22;3.05;;;;;;;;;;5034392;28;20030;-24
2022/10/06 01:20:04;;;;;;;8.95;1.83;;;;;;;;;;5035219;28;20099;-22
2022/10/06 01:22:30;;;;;;;6.35;2.67;;;;;;;;;;5034776;28;20028;-22
2022/10/06 01:24:57;;;;;;;8.55;2.70;;;;;;;;;;5035132;28;20017;-24
2022/10/06 01:27:24;;;;;;;8.52;3.05;;;;;;;;;;5035047;28;20040;-23
2022/10/06 01:29:52;;;;;;;7.05;1.85;;;;;;;;;;5035087;28;20026;-22
2022/10/06 01:32:19;;;;;;;7.70;2.80;;;;;;;;;;5035238;28;20029;-23
2022/10/06 01:34:45;;;;;;;4.60;2.60;;;;;;;;;;5034985;28;20106;-22
2022/10/06 01:37:11;;;;;;;6.47;2.65;;;;;;;;;;5034973;28;20037;-22
2022/10/06 01:39:37;;;;;;;3.45;1.85;;;;;;;;;;5035372;28;20037;-22
2022/10/06 01:42:04;;;;;;;6.03;2.45;;;;;;;;;;5034839;28;20025;-22
2022/10/06 01:44:30;;;;;;;6.57;2.72;;;;;;;;;;5035124;28;20018;-24
2022/10/06 01:46:56;;;;;;;4.75;2.42;;;;;;;;;;5035062;28;20044;-23
2022/10/06 01:49:22;;;;;;;5.00;2.40;;;;;;;;;;5033895;28;20052;-26
2022/10/06 01:51:49;;;;;;;5.57;2.88;;;;;;;;;;5034632;28;20095;-23
2022/10/06 01:54:15;;;;;;;8.70;2.85;;;;;;;;;;5034998;28;20021;-23
2022/10/06 01:56:42;;;;;;;8.32;3.22;;;;;;;;;;5034716;28;20367;-23
2022/10/06 01:59:08;;;;;;;3.47;2.03;;;;;;;;;;5034820;28;20105;-22
2022/10/06 02:01:34;;;;;;;6.40;2.40;;;;;;;;;;5034907;28;20032;-26
2022/10/06 02:04:00;;;;;;;6.30;2.25;;;;;;;;;;5034314;28;20129;-26
2022/10/06 02:06:27;;;;;;;9.23;2.97;;;;;;;;;;5034569;28;20332;-22
2022/10/06 02:08:53;;;;;;;7.35;2.50;;;;;;;;;;5034479;28;20482;-22
2022/10/06 02:11:19;;;;;;;3.08;2.15;;;;;;;;;;5034785;28;20026;-22
2022/10/06 02:13:45;;;;;;;6.82;2.30;;;;;;;;;;5033546;28;20026;-25
2022/10/06 02:16:12;;;;;;;4.68;3.20;;;;;;;;;;5034731;28;20374;-23
2022/10/06 02:18:39;;;;;;;4.85;2.50;;;;;;;;;;5034650;28;20036;-24
2022/10/06 02:21:06;;;;;;;4.22;2.20;;;;;;;;;;5034388;28;20174;-24
2022/10/06 02:23:32;;;;;;;5.38;2.35;;;;;;;;;;5034647;28;20049;-24
2022/10/06 02:26:03;;;;;;;4.80;2.28;;;;;;;;;;5034638;28;20021;-22
2022/10/06 02:28:30;;;;;;;7.57;2.35;;;;;;;;;;5034692;28;20042;-24
2022/10/06 02:31:07;;;;;;;12.68;2.83;;;;;;;;;;5034633;28;20409;-22
2022/10/06 02:33:33;;;;;;;6.95;2.28;;;;;;;;;;5034591;28;20037;-22
2022/10/06 02:36:00;;;;;;;6.53;2.80;;;;;;;;;;5038605;28;20129;-24
2022/10/06 02:38:26;;;;;;;6.78;2.83;;;;;;;;;;5038160;28;20044;-22
2022/10/06 02:40:52;;;;;;;5.47;2.70;;;;;;;;;;5037303;28;20017;-23
2022/10/06 02:43:19;;;;;;;5.85;2.80;;;;;;;;;;5038347;28;20033;-23
2022/10/06 02:46:14;;;;;;;6.63;2.75;;;;;;;;;;5038393;28;20029;-23
2022/10/06 02:48:40;;;;;;;5.60;3.22;;;;;;;;;;5025769;28;20043;-22
2022/10/06 02:51:10;;;;;;;4.22;2.22;;;;;;;;;;5038025;28;20044;-22
2022/10/06 02:53:36;;;;;;;3.80;2.15;;;;;;;;;;5038203;28;20030;-23
2022/10/06 02:56:08;;;;;;;4.00;1.80;;;;;;;;;;5038248;28;20120;-22
2022/10/06 02:58:35;;;;;;;5.25;2.17;;;;;;;;;;5038095;28;20095;-22
2022/10/06 03:01:06;;;;;;;5.57;2.22;;;;;;;;;;5038136;28;20093;-22
2022/10/06 03:03:33;;;;;;;;;;;;;;;;;;5038052;28;20041;-22
2022/10/06 03:06:23;;;;;;;4.60;2.30;;;;;;;;;;5037827;28;19948;-22
2022/10/06 03:08:49;;;;;;;5.28;2.40;;;;;;;;;;5038321;28;20033;-23
2022/10/06 03:11:15;;;;;;;4.25;2.10;;;;;;;;;;5037623;28;20021;-25
2022/10/06 03:13:41;;;;;;;7.28;2.85;;;;;;;;;;5037834;28;20025;-22
2022/10/06 03:16:18;;;;;;;5.93;2.28;;;;;;;;;;5037612;28;20026;-22
2022/10/06 03:18:45;;;;;;;5.57;2.55;;;;;;;;;;5037783;28;20365;-22
2022/10/06 03:21:13;;;;;;;6.00;2.60;;;;;;;;;;5037793;28;20021;-22
2022/10/06 03:23:39;;;;;;;8.20;3.10;;;;;;;;;;5037334;28;20032;-23
2022/10/06 03:26:06;;;;;;;6.40;2.70;;;;;;;;;;5037432;28;20018;-23
2022/10/06 03:28:32;;;;;;;6.78;2.33;;;;;;;;;;5037696;28;20413;-22
2022/10/06 03:31:02;;;;;;;6.22;2.60;;;;;;;;;;5037393;28;20100;-23
2022/10/06 03:33:28;;;;;;;2.90;2.25;;;;;;;;;;5037462;28;20056;-22
2022/10/06 03:35:58;;;;;;;5.05;3.08;;;;;;;;;;5037511;28;20365;-22
2022/10/06 03:38:24;;;;;;;9.60;2.30;;;;;;;;;;5037082;28;20030;-27
2022/10/06 03:40:51;;;;;;;3.80;2.13;;;;;;;;;;5037351;28;20022;-23
2022/10/06 03:43:17;;;;;;;4.57;2.55;;;;;;;;;;5037246;28;20362;-22
2022/10/06 03:45:43;;;;;;;5.85;2.15;;;;;;;;;;5036309;28;20096;-22
2022/10/06 03:48:09;;;;;;;5.10;3.40;;;;;;;;;;5036942;28;20029;-22
2022/10/06 03:50:35;;;;;;;6.10;2.30;;;;;;;;;;5036884;28;20028;-23
2022/10/06 03:53:01;;;;;;;6.20;2.38;;;;;;;;;;5037014;28;20413;-22
2022/10/06 03:55:28;;;;;;;4.57;3.17;;;;;;;;;;5036854;28;20085;-22
2022/10/06 03:57:56;;;;;;;3.47;2.10;;;;;;;;;;5036751;28;20045;-22
2022/10/06 04:00:22;;;;;;;3.83;2.22;;;;;;;;;;5036615;28;20025;-23
2022/10/06 04:02:49;;;;;;;4.18;2.08;;;;;;;;;;5036535;28;20103;-22
2022/10/06 04:05:15;;;;;;;5.43;2.28;;;;;;;;;;5036828;28;20017;-22
2022/10/06 04:07:42;;;;;;;3.97;2.30;;;;;;;;;;5037080;28;20068;-22
2022/10/06 04:10:09;;;;;;;3.63;2.30;;;;;;;;;;5036524;28;20044;-25
2022/10/06 04:12:35;;;;;;;5.68;2.38;;;;;;;;;;5036332;28;20029;-25
2022/10/06 04:15:01;;;;;;;3.75;2.25;;;;;;;;;;5036433;28;20358;-22
2022/10/06 04:17:27;;;;;;;3.28;1.90;;;;;;;;;;5036593;28;20348;-25
2022/10/06 04:19:53;;;;;;;3.40;2.05;;;;;;;;;;5036342;28;20080;-28
2022/10/06 04:22:19;;;;;;;3.67;2.08;;;;;;;;;;5036208;28;20079;-24
2022/10/06 04:24:45;;;;;;;2.97;2.08;;;;;;;;;;5036252;28;20037;-24
2022/10/06 04:27:26;;;;;;;6.13;2.13;;;;;;;;;;5036130;28;20033;-23
2022/10/06 04:29:52;;;;;;;;;;;;;;;;;;5037142;28;20061;-24
2022/10/06 04:32:18;;;;;;;3.63;2.42;;;;;;;;;;5036060;28;19986;-24
2022/10/06 04:34:45;;;;;;;5.20;2.35;;;;;;;;;;5035119;28;20037;-23
2022/10/06 04:37:11;;;;;;;2.13;1.65;;;;;;;;;;5035997;28;20040;-22
2022/10/06 04:39:37;;;;;;;4.43;2.10;;;;;;;;;;5035829;28;20029;-24
2022/10/06 04:42:03;;;;;;;6.45;2.20;;;;;;;;;;5035542;28;20099;-23
2022/10/06 04:44:29;;;;;;;6.07;2.47;;;;;;;;;;5034646;28;20033;-23
2022/10/06 04:46:55;;;;;;;3.95;2.10;;;;;;;;;;5034557;28;20034;-24
2022/10/06 04:49:22;;;;;;;5.97;2.40;;;;;;;;;;5035537;28;20026;-23
2022/10/06 04:51:48;;;;;;;4.40;1.67;;;;;;;;;;5035593;28;20055;-22
2022/10/06 04:54:14;;;;;;;3.80;2.58;;;;;;;;;;5035636;28;20029;-22
2022/10/06 04:56:41;;;;;;;10.93;2.78;;;;;;;;;;5035572;28;20473;-22
2022/10/06 04:59:07;;;;;;;2.83;2.15;;;;;;;;;;5034328;28;20025;-20
2022/10/06 05:01:34;;;;;;;2.70;1.92;;;;;;;;;;5034470;28;20033;-22
2022/10/06 05:04:01;;;;;;;7.32;1.88;;;;;;;;;;5034956;28;20501;-27
2022/10/06 05:06:31;;;;;;;7.50;2.53;;;;;;;;;;5035466;28;20140;-24
2022/10/06 05:09:02;;;;;;;4.22;2.20;;;;;;;;;;5035419;28;20106;-22
2022/10/06 05:11:28;;;;;;;8.38;3.05;;;;;;;;;;5035181;28;20025;-23
2022/10/06 05:13:55;;;;;;;4.82;1.92;;;;;;;;;;5035125;28;20033;-22
2022/10/06 05:16:22;;;;;;;3.47;2.45;;;;;;;;;;5035473;28;20504;-22
2022/10/06 05:18:48;;;;;;;3.97;2.05;;;;;;;;;;5035135;28;20036;-22
2022/10/06 05:21:18;;;;;;;4.10;1.95;;;;;;;;;;5034957;28;20177;-22
2022/10/06 05:23:44;;;;;;;6.53;3.55;;;;;;;;;;5034830;28;20077;-26
2022/10/06 05:26:12;;;;;;;7.18;2.13;;;;;;;;;;5035115;28;20436;-24
2022/10/06 05:28:38;;;;;;;5.60;1.75;;;;;;;;;;5034753;28;20037;-22
2022/10/06 05:31:06;;;;;;;4.78;1.95;;;;;;;;;;5034757;28;20025;-26
2022/10/06 05:33:33;;;;;;;4.32;1.98;;;;;;;;;;5033724;28;20025;-23
2022/10/06 05:36:01;;;;;;;5.82;2.25;;;;;;;;;;5034818;28;20033;-22
2022/10/06 05:38:27;;;;;;;5.97;2.55;;;;;;;;;;5034748;28;20381;-24
2022/10/06 05:41:12;;;;;;;5.95;3.40;;;;;;;;;;5034874;28;20366;-23
2022/10/06 05:43:39;;;;;;;5.47;1.90;;;;;;;;;;5034661;28;20048;-24
2022/10/06 05:46:06;;;;;;;5.88;3.08;;;;;;;;;;5033482;28;20446;-22
2022/10/06 05:48:33;;;;;;;5.00;2.15;;;;;;;;;;5034660;28;20029;-22
2022/10/06 05:50:59;;;;;;;3.47;1.70;;;;;;;;;;5034707;28;20033;-23
2022/10/06 05:53:26;;;;;;;6.22;2.47;;;;;;;;;;5034281;28;20041;-24
2022/10/06 05:55:52;;;;;;;2.72;1.75;;;;;;;;;;5034870;28;20148;-23
2022/10/06 05:58:18;;;;;;;6.45;2.42;;;;;;;;;;5034256;28;20034;-27
2022/10/06 06:03:20;;;;;;;4.13;1.95;;;;;;;;;;5361882;22;20124;-24
2022/10/06 06:05:47;;;;;;;4.57;2.70;;;;;;;;;;5014754;28;20030;-25
2022/10/06 06:08:13;;;;;;;7.95;2.67;;;;;;;;;;5014320;28;20076;-25
2022/10/06 06:10:39;;;;;;;6.63;2.80;;;;;;;;;;5014281;28;20160;-25
2022/10/06 06:13:05;;;;;;;6.13;2.28;;;;;;;;;;5014506;28;20476;-26
2022/10/06 06:18:16;;;;;;;6.40;2.25;;;;;;;;;;5014469;28;20108;-25
2022/10/06 06:20:42;;;;;;;7.88;1.95;;;;;;;;;;5014385;28;20049;-25
2022/10/06 06:23:08;;;;;;;8.15;2.08;;;;;;;;;;5014298;28;20041;-25
2022/10/06 06:25:34;;;;;;;5.55;2.78;;;;;;;;;;5014588;28;20030;-25
2022/10/06 06:28:01;;;;;;;8.05;2.78;;;;;;;;;;5014381;28;20390;-25
2022/10/06 06:30:27;;;;;;;4.20;2.25;;;;;;;;;;5014229;28;20026;-25
2022/10/06 06:32:59;;;;;;;6.38;2.53;;;;;;;;;;5029958;28;20041;-25
2022/10/06 06:35:25;;;;;;;4.15;2.50;;;;;;;;;;5014755;28;20033;-25
2022/10/06 06:37:51;;;;;;;13.38;2.40;;;;;;;;;;5014122;28;20040;-26
2022/10/06 06:40:17;;;;;;;8.23;2.72;;;;;;;;;;5014154;28;20351;-26
2022/10/06 06:42:43;;;;;;;7.95;2.10;;;;;;;;;;5014088;28;20026;-25
2022/10/06 06:45:09;;;;;;;4.43;2.58;;;;;;;;;;5014253;28;20021;-26
2022/10/06 06:47:36;;;;;;;6.88;2.30;;;;;;;;;;5013102;28;20037;-26
2022/10/06 06:50:03;;;;;;;6.22;2.63;;;;;;;;;;5014078;28;20030;-25
2022/10/06 06:52:31;;;;;;;12.98;3.55;;;;;;;;;;5029544;28;20430;-26
2022/10/06 06:54:57;;;;;;;3.75;1.75;;;;;;;;;;5014390;28;20101;-25
2022/10/06 06:57:23;;;;;;;12.70;2.80;;;;;;;;;;5029476;28;20460;-26
2022/10/06 06:59:49;;;;;;;12.55;3.10;;;;;;;;;;5014200;28;20034;-26
2022/10/06 07:02:16;;;;;;;4.80;2.85;;;;;;;;;;5013722;28;20056;-25
2022/10/06 07:04:42;;;;;;;6.68;2.33;;;;;;;;;;5013883;28;20034;-25
2022/10/06 07:07:10;;;;;;;6.40;2.95;;;;;;;;;;5013860;28;20022;-26
2022/10/06 07:09:36;;;;;;;5.60;2.13;;;;;;;;;;5013739;28;20042;-25
2022/10/06 07:12:02;;;;;;;13.30;2.85;;;;;;;;;;5014042;28;20045;-26
2022/10/06 07:14:28;;;;;;;4.90;2.72;;;;;;;;;;5013788;28;20067;-25
2022/10/06 07:25:14;;;;;;;6.97;2.53;;;;;;;;;;5017615;28;20041;-26
2022/10/06 07:27:41;;;;;;;8.52;2.88;;;;;;;;;;5017409;28;20025;-24
2022/10/06 07:30:08;;;;;;;12.57;3.33;;;;;;;;;;5017138;28;20050;-25
2022/10/06 07:32:36;;;;;;;8.25;2.35;;;;;;;;;;5017390;28;20060;-25
2022/10/06 07:35:03;;;;;;;10.65;2.38;;;;;;;;;;5017481;28;20056;-26
2022/10/06 07:37:29;;;;;;;14.00;3.33;;;;;;;;;;5017200;28;20108;-26
2022/10/06 07:39:55;;;;;;;5.75;2.08;;;;;;;;;;5016843;28;20454;-26
2022/10/06 07:42:21;;;;;;;8.60;2.35;;;;;;;;;;5016817;28;20061;-25
2022/10/06 07:47:36;;;;;;;6.68;2.30;;;;;;;;;;4986625;28;20038;-26
2022/10/06 07:50:04;;;;;;;8.60;2.83;;;;;;;;;;5017096;28;20026;-25
2022/10/06 07:52:30;;;;;;;6.25;2.65;;;;;;;;;;5016598;28;20113;-25
2022/10/06 07:54:57;;;;;;;6.07;2.67;;;;;;;;;;5016976;28;20048;-25
2022/10/06 07:57:29;;;;;;;11.50;2.75;;;;;;;;;;5016724;28;20030;-24
2022/10/06 07:59:55;;;;;;;7.43;2.65;;;;;;;;;;5016569;28;20468;-25
2022/10/06 08:02:22;;;;;;;4.90;2.70;;;;;;;;;;5016489;28;20109;-25
2022/10/06 08:04:48;;;;;;;5.95;2.53;;;;;;;;;;5016479;28;20092;-24
2022/10/06 08:07:14;;;;;;;13.57;2.53;;;;;;;;;;5016440;28;20117;-25
2022/10/06 08:09:40;;;;;;;7.70;2.95;;;;;;;;;;5016419;28;20030;-25
2022/10/06 08:12:31;;;;;;;4.50;2.10;;;;;;;;;;5016405;28;20068;-25
2022/10/06 08:14:52;;;;;;;11.52;2.85;;;;;;;;;;5016287;28;20474;-25
2022/10/06 08:17:18;;;;;;;6.18;2.10;;;;;;;;;;5016247;28;20109;-24
2022/10/06 08:19:46;;;;;;;7.25;2.38;;;;;;;;;;5016573;28;20405;-24
2022/10/06 08:22:14;;;;;;;12.10;3.50;;;;;;;;;;5016678;28;20100;-25
2022/10/06 08:24:41;;;;;;;9.95;2.25;;;;;;;;;;5016420;28;20029;-25
2022/10/06 08:27:08;;;;;;;4.38;2.45;;;;;;;;;;5016296;28;20114;-25
2022/10/06 08:29:35;;;;;;;7.25;2.50;;;;;;;;;;5016000;28;20058;-25
2022/10/06 08:32:01;;;;;;;6.78;2.90;;;;;;;;;;5015600;28;20037;-25
2022/10/06 08:34:28;;;;;;;9.00;2.58;;;;;;;;;;5015920;28;20026;-25
2022/10/06 08:36:56;;;;;;;8.23;2.60;;;;;;;;;;5016093;28;20053;-25
2022/10/06 08:39:22;;;;;;;8.18;2.30;;;;;;;;;;5015617;28;20177;-25
2022/10/06 08:41:53;;;;;;;14.40;2.88;;;;;;;;;;5031165;28;20069;-26
2022/10/06 08:44:31;;;;;;;22.83;3.45;;;;;;;;;;5015739;28;20033;-26
2022/10/06 08:47:04;;;;;;;12.63;3.83;;;;;;;;;;5015866;28;20087;-25
2022/10/06 08:49:37;;;;;;;8.07;2.47;;;;;;;;;;5015826;28;20025;-26
2022/10/06 08:52:03;;;;;;;16.42;3.47;;;;;;;;;;5016309;28;20034;-25
2022/10/06 08:54:33;;;;;;;24.38;5.35;;;;;;;;;;5015845;28;20045;-25
2022/10/06 08:57:02;;;;;;;19.35;3.55;;;;;;;;;;5015815;28;20366;-26
2022/10/06 08:59:31;;;;;;;14.38;3.22;;;;;;;;;;5015191;28;20041;-26
2022/10/06 09:01:57;;;;;;;15.55;4.75;;;;;;;;;;5014981;28;20109;-25
2022/10/06 09:04:27;;;;;;;8.55;2.85;;;;;;;;;;5015155;28;20116;-26
2022/10/06 09:06:59;;;;;;;15.05;4.25;;;;;;;;;;5015014;28;20061;-26
2022/10/06 09:09:28;;;;;;;20.00;2.67;;;;;;;;;;5015164;28;20477;-26
2022/10/06 09:12:00;;;;;;;16.38;3.13;;;;;;;;;;5015101;28;20057;-25
2022/10/06 09:14:36;;;;;;;12.18;2.85;;;;;;;;;;5015562;28;20040;-25
2022/10/06 09:17:06;;;;;;;16.45;3.30;;;;;;;;;;5015082;28;20129;-26
2022/10/06 09:19:34;;;;;;;13.80;3.38;;;;;;;;;;5015190;28;20030;-26
2022/10/06 09:22:03;;;;;;;17.02;3.85;;;;;;;;;;5015432;28;20026;-25
2022/10/06 09:24:32;;;;;;;8.95;2.58;;;;;;;;;;5030366;28;20084;-25
2022/10/06 09:26:59;;;;;;;13.50;3.50;;;;;;;;;;5015185;28;20520;-25
2022/10/06 09:29:30;;;;;;;15.30;2.92;;;;;;;;;;5015013;28;20324;-25
2022/10/06 09:31:58;;;;;;;8.73;2.80;;;;;;;;;;5014863;28;20144;-25
2022/10/06 09:34:33;;;;;;;11.80;3.25;;;;;;;;;;5030152;28;20425;-25
2022/10/06 09:37:01;;;;;;;9.63;3.40;;;;;;;;;;5014597;28;20046;-25
2022/10/06 09:39:35;;;;;;;10.15;2.78;;;;;;;;;;5014681;28;20030;-26
2022/10/06 09:42:11;;;;;;;14.68;3.03;;;;;;;;;;5014566;28;20088;-26
2022/10/06 09:45:04;;;;;;;13.93;3.08;;;;;;;;;;5014234;28;20096;-26
2022/10/06 09:47:34;;;;;;;7.47;3.03;;;;;;;;;;5012423;28;20037;-26
2022/10/06 09:50:10;;;;;;;8.30;2.30;;;;;;;;;;5015095;28;20029;-26
2022/10/06 09:52:37;;;;;;;12.35;3.03;;;;;;;;;;5014485;28;20038;-26
2022/10/06 09:55:14;;;;;;;21.48;3.17;;;;;;;;;;5014539;28;20037;-25
2022/10/06 09:57:50;;;;;;;10.00;4.15;;;;;;;;;;5014221;28;20036;-26
2022/10/06 10:00:28;;;;;;;13.35;3.28;;;;;;;;;;5014816;28;20084;-25
2022/10/06 10:03:02;;;;;;;13.00;2.90;;;;;;;;;;5014364;28;20125;-25
2022/10/06 10:05:32;;;;;;;17.75;2.83;;;;;;;;;;5014675;28;20026;-25
2022/10/06 10:08:08;;;;;;;13.35;2.95;;;;;;;;;;5014400;28;20092;-25
2022/10/06 10:10:35;;;;;;;14.02;3.58;;;;;;;;;;5014506;28;20351;-25
2022/10/06 10:13:02;;;;;;;16.90;3.28;;;;;;;;;;5014436;28;20450;-26
2022/10/06 10:15:30;;;;;;;11.77;2.72;;;;;;;;;;5014469;28;20100;-26
2022/10/06 10:17:58;;;;;;;15.90;3.05;;;;;;;;;;5029696;28;20109;-26
2022/10/06 10:20:27;;;;;;;13.15;3.13;;;;;;;;;;5014117;28;20021;-26
2022/10/06 10:22:53;;;;;;;17.80;2.63;;;;;;;;;;5014380;28;20117;-25
2022/10/06 10:25:20;;;;;;;13.15;3.03;;;;;;;;;;5014280;28;20037;-26
2022/10/06 10:27:53;;;;;;;14.57;2.75;;;;;;;;;;5014343;28;20034;-26
2022/10/06 10:30:19;;;;;;;17.77;4.43;;;;;;;;;;5014368;28;20351;-26
2022/10/06 10:33:03;;;;;;;26.00;3.42;;;;;;;;;;5014379;28;20056;-26
2022/10/06 10:35:39;;;;;;;24.52;3.78;;;;;;;;;;5014103;28;20036;-26
2022/10/06 10:38:08;;;;;;;17.20;3.70;;;;;;;;;;5014190;28;20095;-26
2022/10/06 10:40:47;;;;;;;17.10;3.22;;;;;;;;;;5014052;28;20030;-26
2022/10/06 10:43:18;;;;;;;21.73;5.47;;;;;;;;;;5014214;28;20362;-26
2022/10/06 10:45:45;;;;;;;;;;;;;;;;;;5014855;28;20399;-25
2022/10/06 10:48:15;;;;;;;15.55;3.22;;;;;;;;;;5014414;28;19923;-25
2022/10/06 10:50:50;;;;;;;17.97;3.20;;;;;;;;;;5014126;28;20041;-26
2022/10/06 10:53:27;;;;;;;17.90;3.63;;;;;;;;;;5014277;28;20032;-25
2022/10/06 10:55:53;;;;;;;17.75;3.33;;;;;;;;;;5031646;28;20026;-26
2022/10/06 10:58:22;;;;;;;21.15;4.28;;;;;;;;;;5017695;28;20113;-26
2022/10/06 11:00:51;;;;;;;25.58;3.60;;;;;;;;;;5017701;28;20026;-25
2022/10/06 11:03:17;;;;;;;15.13;4.20;;;;;;;;;;5017938;28;20050;-26
2022/10/06 11:06:04;;;;;;;19.38;3.10;;;;;;;;;;5017928;28;20022;-26
2022/10/06 11:08:39;;;;;;;8.27;2.83;;;;;;;;;;5017593;28;20037;-25
2022/10/06 11:11:09;;;;;;;21.85;3.70;;;;;;;;;;5017816;28;20097;-26
2022/10/06 11:13:41;;;;;;;10.35;2.60;;;;;;;;;;5032787;28;20053;-25
2022/10/06 11:16:22;;;;;;;17.23;3.03;;;;;;;;;;5017703;28;20390;-26
2022/10/06 11:18:51;;;;;;;16.52;3.88;;;;;;;;;;5017504;28;20299;-26
2022/10/06 11:21:23;;;;;;;32.65;3.80;;;;;;;;;;5017506;28;20037;-25
2022/10/06 11:23:53;;;;;;;20.73;3.05;;;;;;;;;;5017131;28;20029;-25
2022/10/06 11:26:23;;;;;;;17.15;4.03;;;;;;;;;;5017468;28;20041;-25
2022/10/06 11:29:07;;;;;;;25.23;3.33;;;;;;;;;;5017777;28;20030;-25
2022/10/06 11:31:36;;;;;;;26.58;4.75;;;;;;;;;;5017125;28;20034;-26
2022/10/06 11:34:05;;;;;;;10.27;2.67;;;;;;;;;;5032354;28;20038;-25
2022/10/06 11:36:42;;;;;;;20.00;3.20;;;;;;;;;;5032459;28;20415;-25
2022/10/06 11:39:29;;;;;;;27.50;3.95;;;;;;;;;;5017068;28;20030;-25
2022/10/06 11:42:09;;;;;;;17.00;3.03;;;;;;;;;;5017386;28;20466;-25
2022/10/06 11:44:41;;;;;;;21.50;3.60;;;;;;;;;;5017210;28;20105;-25
2022/10/06 11:47:21;;;;;;;11.15;3.35;;;;;;;;;;5017375;28;20092;-25
2022/10/06 11:49:50;;;;;;;20.48;3.63;;;;;;;;;;5017138;28;20076;-26
2022/10/06 11:52:17;;;;;;;15.88;3.33;;;;;;;;;;5017235;28;20033;-26
2022/10/06 11:54:47;;;;;;;11.23;2.67;;;;;;;;;;5016652;28;20048;-26
2022/10/06 11:57:22;;;;;;;26.30;3.47;;;;;;;;;;5016820;28;20057;-27
2022/10/06 12:00:04;;;;;;;19.88;3.72;;;;;;;;;;5016726;28;20029;-24
2022/10/06 12:02:30;;;;;;;17.30;3.60;;;;;;;;;;5016236;28;20034;-24
2022/10/06 12:05:15;;;;;;;34.83;3.88;;;;;;;;;;5016833;28;20099;-24
2022/10/06 12:07:56;;;;;;;39.13;5.00;;;;;;;;;;5015681;28;20100;-24
2022/10/06 12:10:28;;;;;;;32.58;3.88;;;;;;;;;;5016263;28;20030;-25
2022/10/06 12:12:57;;;;;;;30.23;4.30;;;;;;;;;;5016369;28;20048;-25
2022/10/06 12:15:53;;;;;;;50.88;5.22;;;;;;;;;;5016189;28;20030;-25
2022/10/06 12:18:24;;;;;;;11.18;2.70;;;;;;;;;;4963834;28;20109;-25
2022/10/06 12:21:05;;;;;;;18.42;3.55;;;;;;;;;;5016227;28;20037;-25
2022/10/06 12:23:33;;;;;;;31.98;3.95;;;;;;;;;;5031558;28;20030;-25
2022/10/06 12:26:02;;;;;;;15.35;2.75;;;;;;;;;;5016103;28;20030;-25
2022/10/06 12:28:43;;;;;;;14.38;3.22;;;;;;;;;;5016095;28;20044;-25
2022/10/06 12:31:27;;;;;;;10.85;3.45;;;;;;;;;;5016446;28;20351;-25
2022/10/06 12:33:54;;;;;;;16.58;3.72;;;;;;;;;;5015875;28;20112;-25
2022/10/06 12:36:27;;;;;;;16.55;3.00;;;;;;;;;;5015890;28;20463;-25
2022/10/06 12:39:03;;;;;;;18.60;3.25;;;;;;;;;;5016034;28;20362;-26
2022/10/06 12:41:49;;;;;;;15.18;3.33;;;;;;;;;;5015721;28;20029;-28
2022/10/06 12:44:36;;;;;;;24.48;3.95;;;;;;;;;;5016134;28;20029;-26
2022/10/06 12:47:05;;;;;;;16.83;3.58;;;;;;;;;;5015552;28;20037;-26
2022/10/06 12:50:01;;;;;;;20.17;4.43;;;;;;;;;;5015418;28;20053;-26
2022/10/06 12:52:43;;;;;;;20.67;4.22;;;;;;;;;;5002919;28;20172;-26
2022/10/06 12:55:36;;;;;;;13.60;2.53;;;;;;;;;;5015953;28;20034;-26
2022/10/06 12:58:02;;;;;;;14.70;3.58;;;;;;;;;;4992969;28;20038;-26
2022/10/06 13:00:33;;;;;;;18.35;4.20;;;;;;;;;;5015352;28;20446;-26
2022/10/06 13:03:01;;;;;;;23.13;4.40;;;;;;;;;;5015391;28;20477;-26
2022/10/06 13:05:27;;;;;;;14.10;3.25;;;;;;;;;;5015477;28;20037;-24
2022/10/06 13:07:58;;;;;;;9.05;3.67;;;;;;;;;;5015519;28;20026;-25
2022/10/06 13:10:24;;;;;;;14.73;5.50;;;;;;;;;;5015663;28;20026;-25
2022/10/06 13:12:51;;;;;;;14.32;2.95;;;;;;;;;;5015151;28;20026;-24
2022/10/06 13:15:22;;;;;;;12.38;2.85;;;;;;;;;;5015477;28;20029;-25
2022/10/06 13:18:01;;;;;;;18.48;2.92;;;;;;;;;;5015719;28;20502;-23
2022/10/06 13:20:35;;;;;;;13.90;3.47;;;;;;;;;;5014590;28;20078;-25
2022/10/06 13:23:01;;;;;;;12.18;3.35;;;;;;;;;;5015335;28;20026;-25
2022/10/06 13:25:34;;;;;;;13.77;3.42;;;;;;;;;;5015502;28;20379;-24
2022/10/06 13:28:03;;;;;;;13.55;3.30;;;;;;;;;;5015454;28;20065;-25
2022/10/06 13:30:29;;;;;;;14.68;2.67;;;;;;;;;;5015230;28;20050;-25
2022/10/06 13:32:56;;;;;;;20.50;3.72;;;;;;;;;;5015123;28;20030;-25
2022/10/06 13:35:25;;;;;;;15.20;2.80;;;;;;;;;;5015271;28;20064;-24
2022/10/06 13:37:52;;;;;;;20.40;3.90;;;;;;;;;;5015203;28;20029;-24
2022/10/06 13:40:31;;;;;;;20.00;5.25;;;;;;;;;;5014887;28;20494;-24
2022/10/06 13:42:58;;;;;;;15.35;2.92;;;;;;;;;;5014804;28;20034;-25
2022/10/06 13:45:25;;;;;;;12.18;3.55;;;;;;;;;;5014817;28;20116;-24
2022/10/06 13:48:06;;;;;;;23.35;3.80;;;;;;;;;;5014726;28;20137;-25
2022/10/06 13:50:32;;;;;;;15.43;3.47;;;;;;;;;;5015018;28;20036;-25
2022/10/06 13:52:58;;;;;;;36.65;4.07;;;;;;;;;;5014673;28;20261;-25
2022/10/06 13:55:26;;;;;;;22.33;4.57;;;;;;;;;;5015037;28;20391;-25
2022/10/06 13:57:59;;;;;;;20.70;4.25;;;;;;;;;;5015207;28;20038;-25
2022/10/06 14:00:29;;;;;;;14.50;3.75;;;;;;;;;;5014859;28;20041;-25
2022/10/06 14:03:04;;;;;;;25.17;3.50;;;;;;;;;;5014639;28;20045;-26
2022/10/06 14:05:37;;;;;;;16.13;5.22;;;;;;;;;;5014494;28;20014;-26
2022/10/06 14:08:15;;;;;;;27.52;3.50;;;;;;;;;;5014425;28;20105;-25
2022/10/06 14:10:48;;;;;;;11.90;2.50;;;;;;;;;;5013648;28;20030;-25
2022/10/06 14:13:29;;;;;;;6.22;2.95;;;;;;;;;;5014677;28;20041;-25
2022/10/06 14:15:55;;;;;;;;;;;;;;;;;;5014795;28;20084;-25
2022/10/06 14:18:24;;;;;;;15.27;2.92;;;;;;;;;;5014513;28;19913;-25
2022/10/06 14:20:52;;;;;;;18.55;3.40;;;;;;;;;;5014918;28;20037;-25
2022/10/06 14:23:38;;;;;;;14.55;2.95;;;;;;;;;;5014284;28;20110;-25
2022/10/06 14:26:04;;;;;;;9.45;2.67;;;;;;;;;;5029921;28;20355;-25
2022/10/06 14:28:31;;;;;;;10.68;2.92;;;;;;;;;;5014442;28;20417;-25
2022/10/06 14:30:57;;;;;;;21.70;3.50;;;;;;;;;;5016716;28;20026;-25
2022/10/06 14:33:24;;;;;;;13.75;3.22;;;;;;;;;;5018626;28;20080;-25
2022/10/06 14:35:51;;;;;;;33.00;4.90;;;;;;;;;;5018361;28;20026;-25
2022/10/06 14:38:17;;;;;;;17.63;2.95;;;;;;;;;;5019382;28;20061;-25
2022/10/06 14:40:44;;;;;;;19.10;3.13;;;;;;;;;;5018230;28;20030;-25
2022/10/06 14:43:10;;;;;;;15.23;2.88;;;;;;;;;;5018103;28;20363;-25
2022/10/06 14:45:43;;;;;;;9.25;3.88;;;;;;;;;;5018170;28;20072;-25
2022/10/06 14:48:09;;;;;;;18.55;4.72;;;;;;;;;;5018071;28;20030;-25
2022/10/06 14:50:35;;;;;;;10.55;2.90;;;;;;;;;;5018348;28;20112;-25
2022/10/06 14:53:02;;;;;;;18.52;3.67;;;;;;;;;;5033512;28;20342;-29
2022/10/06 14:55:29;;;;;;;15.55;3.72;;;;;;;;;;5018027;28;20095;-25
2022/10/06 14:57:59;;;;;;;14.25;3.03;;;;;;;;;;5018229;28;20042;-25
2022/10/06 15:00:27;;;;;;;10.70;2.65;;;;;;;;;;5018066;28;20062;-25
2022/10/06 15:02:54;;;;;;;13.38;3.28;;;;;;;;;;5017634;28;20042;-25
2022/10/06 15:05:21;;;;;;;12.13;3.03;;;;;;;;;;5017699;28;20058;-25
2022/10/06 15:10:31;;;;;;;11.10;2.35;;;;;;;;;;5017736;28;20045;-25